Impacts METAR Board INFO
IDs:

KSAN - San Diego Intl Arpt, CA, US

Updated at: 0333 UTC 13 Dec 2017
Potential Impact None Slight Moderate High
Time12/15Z 12/16Z 12/17Z 12/18Z 12/19Z 12/20Z 12/21Z 12/22Z 12/23Z 13/00Z 13/01Z 13/02Z 13/03Z
VIS10 10 10 10 10 10 10 10 10 10 10 10 10
CIG-- -- -- -- -- -- -- -- -- -- -- -- --
CoverCLRFEWFEWCLRFEWCLRFEWFEWFEWFEWFEWCLRCLR
FltCatVFRVFRVFRVFRVFRVFRVFRVFRVFRVFRVFRVFRVFR
WX--------------------------
WDir0340330340300310300320300340330320300
WSpd0 3 3 4 5 6 6 7 7 5 5 3 5
WGst-- -- -- -- -- -- -- -- -- -- -- -- --
Raw hourly METARs
KSAN 121451Z 00000KT 10SM CLR 11/M07 A3019 RMK AO2 SLP221 T01111072 53000
KSAN 121551Z 34003KT 10SM FEW007 13/M06 A3019 RMK AO2 SLP223 FU FEW007 T01331056
KSAN 121651Z 33003KT 10SM FEW007 17/M07 A3020 RMK AO2 SLP225 FU FEW007 T01721072
KSAN 121751Z 34004KT 10SM CLR 22/M10 A3019 RMK AO2 SLP221 T02221100 10222 20100 50001
KSAN 121851Z 30005KT 10SM FEW200 24/M11 A3015 RMK AO2 SLP210 T02441111
KSAN 121951Z 31006KT 10SM CLR 25/M12 A3012 RMK AO2 SLP197 T02501122
KSAN 122051Z 30006KT 10SM FEW007 25/M12 A3008 RMK AO2 SLP184 FU FEW007 T02501117 58038
KSAN 122151Z 32007KT 10SM FEW012 FEW150 25/M11 A3005 RMK AO2 SLP176 FU FEW012 T02501106
KSAN 122251Z 30007KT 10SM FEW012 FEW150 24/M07 A3004 RMK AO2 SLP171 FU FEW012 T02441072
KSAN 122351Z 34005KT 10SM FEW012 FEW150 24/M12 A3004 RMK AO2 SLP170 FU FEW012 T02441117 10256 20222 56014
KSAN 130051Z 33005KT 10SM FEW012 FEW150 23/M08 A3003 RMK AO2 SLP169 FU FEW012 T02331078
KSAN 130151Z 32003KT 10SM CLR 22/M06 A3004 RMK AO2 SLP173 T02171061
KSAN 130251Z 30005KT 10SM CLR 18/00 A3005 RMK AO2 SLP177 T01830000 53006